Time;durP1;ratioP1;P1;durP2;ratioP2;P2;SDS_P1;SDS_P2;PMS_P1;PMS_P2;Temp;Humidity;BMP_temperature;BMP_pressure;BME280_temperature;BME280_humidity;BME280_pressure;Samples;Min_cycle;Max_cycle;Signal;HPM_P1;HPM_P2
2023/07/18 00:02:12;;;;;;;6.32;3.20;;;;;;;12.66;81.05;101928.28;5127266;27;20036;-85
2023/07/18 00:04:38;;;;;;;6.07;2.95;;;;;;;12.65;81.29;101927.41;5130649;28;20083;-86
2023/07/18 00:07:05;;;;;;;5.57;3.08;;;;;;;12.55;81.74;101930.38;5134498;27;20044;-85
2023/07/18 00:09:30;;;;;;;3.80;2.80;;;;;;;12.56;82.08;101928.53;5132798;28;20035;-85
2023/07/18 00:11:59;;;;;;;5.68;3.20;;;;;;;12.69;81.01;101936.84;5124649;28;20378;-85
2023/07/18 00:14:24;;;;;;;4.60;3.00;;;;;;;12.70;81.34;101935.81;5117029;28;20024;-85
2023/07/18 00:16:50;;;;;;;5.13;2.88;;;;;;;12.82;80.62;101935.34;5114268;28;20490;-85
2023/07/18 00:19:15;;;;;;;6.53;2.92;;;;;;;12.82;80.59;101938.06;5116492;28;20020;-85
2023/07/18 00:21:41;;;;;;;5.13;2.90;;;;;;;12.84;80.29;101928.75;5112448;28;20452;-85
2023/07/18 00:24:09;;;;;;;3.50;2.60;;;;;;;12.87;80.11;101931.09;5112055;28;20050;-85
2023/07/18 00:26:34;;;;;;;5.28;2.65;;;;;;;12.92;80.26;101935.09;5111216;28;20023;-85
2023/07/18 00:29:00;;;;;;;7.03;2.60;;;;;;;12.89;79.90;101934.44;5111009;28;20085;-85
2023/07/18 00:31:26;;;;;;;6.00;3.25;;;;;;;12.86;80.39;101934.81;5108488;28;20023;-85
2023/07/18 00:33:52;;;;;;;4.93;2.72;;;;;;;12.82;80.43;101938.06;5108493;28;20432;-85
2023/07/18 00:36:17;;;;;;;6.15;2.97;;;;;;;12.75;80.86;101927.16;5112781;28;20523;-85
2023/07/18 00:38:43;;;;;;;3.95;2.60;;;;;;;12.80;80.59;101927.44;5108803;28;20477;-85
2023/07/18 00:41:11;;;;;;;5.57;2.70;;;;;;;12.89;80.15;101929.03;5107612;28;20024;-85
2023/07/18 00:43:36;;;;;;;5.00;2.80;;;;;;;12.95;80.50;101926.59;5111356;28;20498;-85
2023/07/18 00:46:02;;;;;;;5.45;2.80;;;;;;;12.96;80.09;101920.19;5110426;28;20114;-85
2023/07/18 00:48:27;;;;;;;6.38;3.20;;;;;;;12.86;80.66;101924.00;5074046;28;20016;-85
2023/07/18 00:50:53;;;;;;;6.78;3.30;;;;;;;12.85;81.47;101924.19;5092559;28;20490;-85
2023/07/18 00:53:20;;;;;;;4.78;2.90;;;;;;;12.88;80.94;101919.22;5113732;28;20072;-85
2023/07/18 00:55:45;;;;;;;5.93;3.28;;;;;;;12.83;81.06;101924.38;5079807;28;20110;-86
2023/07/18 00:58:11;;;;;;;3.63;3.05;;;;;;;12.83;81.22;101924.38;5080844;28;20043;-84
2023/07/18 01:00:38;;;;;;;8.75;3.08;;;;;;;12.91;80.89;101928.00;5118608;28;20027;-85
2023/07/18 01:03:03;;;;;;;5.93;3.33;;;;;;;12.81;81.64;101920.16;5118348;28;20069;-85
2023/07/18 01:05:28;;;;;;;4.97;3.10;;;;;;;12.64;82.64;101919.50;5120880;28;20028;-85
2023/07/18 01:07:54;;;;;;;6.25;2.80;;;;;;;12.70;82.26;101921.50;5079256;28;20054;-85
2023/07/18 01:10:26;;;;;;;6.13;3.35;;;;;;;12.71;82.05;101917.72;5113774;28;20451;-86
2023/07/18 01:12:56;;;;;;;5.30;3.42;;;;;;;12.68;82.45;101915.44;5112422;28;20031;-85
2023/07/18 01:15:21;;;;;;;5.18;3.30;;;;;;;12.62;82.49;101918.84;5114612;28;20038;-84
2023/07/18 01:17:47;;;;;;;5.88;3.03;;;;;;;12.67;82.33;101911.03;5115126;28;20435;-85
2023/07/18 01:20:19;;;;;;;6.30;3.10;;;;;;;12.63;82.30;101920.53;5109404;28;20071;-85
2023/07/18 01:22:46;;;;;;;7.25;3.50;;;;;;;12.65;82.24;101926.59;5114149;27;20027;-85
2023/07/18 01:25:17;;;;;;;4.10;3.25;;;;;;;12.50;82.99;101922.00;5114005;28;20429;-85
2023/07/18 01:27:46;;;;;;;7.63;3.38;;;;;;;12.50;82.59;101921.16;5114563;28;20111;-85
2023/07/18 01:30:12;;;;;;;5.72;3.33;;;;;;;12.51;82.73;101921.00;5113479;28;20063;-85
2023/07/18 01:32:37;;;;;;;4.22;3.25;;;;;;;12.51;82.72;101918.28;5113239;28;20082;-86
2023/07/18 01:35:08;;;;;;;4.20;3.13;;;;;;;12.51;82.44;101921.00;5114240;28;20020;-85
2023/07/18 01:37:37;;;;;;;6.15;3.47;;;;;;;12.53;81.88;101924.31;5111692;28;20057;-85
2023/07/18 01:40:08;;;;;;;4.70;2.90;;;;;;;12.54;81.91;101923.31;5113466;28;20430;-85
2023/07/18 01:42:36;;;;;;;4.18;2.70;;;;;;;12.59;80.96;101914.66;5113693;28;20106;-85
2023/07/18 01:45:03;;;;;;;6.35;3.15;;;;;;;12.61;80.95;101920.72;5112836;28;20028;-85
2023/07/18 01:47:31;;;;;;;11.85;3.38;;;;;;;12.58;80.98;101913.81;5112710;28;20524;-85
2023/07/18 01:49:57;;;;;;;5.07;3.15;;;;;;;12.64;80.60;101911.41;5113799;28;20091;-86
2023/07/18 01:52:24;;;;;;;4.03;2.67;;;;;;;12.64;80.86;101912.22;5113733;28;20514;-85
2023/07/18 01:54:53;;;;;;;5.97;2.92;;;;;;;12.63;80.63;101912.44;5111627;28;20042;-86
2023/07/18 01:57:18;;;;;;;3.70;2.75;;;;;;;12.62;80.57;101906.16;5113426;27;20049;-85
2023/07/18 01:59:44;;;;;;;5.03;3.15;;;;;;;12.64;80.92;101906.81;5113561;28;20144;-85
2023/07/18 02:02:09;;;;;;;6.30;2.95;;;;;;;12.62;80.94;101916.16;5120872;28;20019;-85
2023/07/18 02:04:35;;;;;;;5.65;3.10;;;;;;;12.59;81.05;101904.69;5114188;28;20030;-85
2023/07/18 02:07:00;;;;;;;6.50;3.30;;;;;;;12.58;80.84;101903.00;5113814;28;20084;-85
2023/07/18 02:09:26;;;;;;;4.63;3.22;;;;;;;12.53;81.70;101905.41;5111948;28;20038;-85
2023/07/18 02:11:52;;;;;;;4.60;2.85;;;;;;;12.49;81.94;101893.31;5112983;28;20498;-85
2023/07/18 02:14:19;;;;;;;8.45;3.17;;;;;;;12.49;82.29;101887.06;5113236;28;20042;-85
2023/07/18 02:16:45;;;;;;;6.35;3.30;;;;;;;12.41;82.43;101891.53;5112276;28;20031;-85
2023/07/18 02:19:10;;;;;;;6.05;3.70;;;;;;;12.42;82.73;101887.81;5112048;27;20038;-85
2023/07/18 02:21:36;;;;;;;6.45;3.72;;;;;;;12.41;83.45;101890.69;5112485;28;20395;-85
2023/07/18 02:24:02;;;;;;;6.60;3.53;;;;;;;12.38;83.12;101896.44;5112750;28;20019;-85
2023/07/18 02:26:27;;;;;;;5.85;3.70;;;;;;;12.39;83.14;101887.34;5110511;28;21800;-86
2023/07/18 02:28:54;;;;;;;6.63;3.45;;;;;;;12.40;83.89;101889.00;5112512;28;20035;-85
2023/07/18 02:31:19;;;;;;;4.75;3.40;;;;;;;12.26;83.75;101883.41;5112372;28;20031;-85
2023/07/18 02:33:44;;;;;;;5.53;3.80;;;;;;;12.16;84.78;101882.84;5112020;28;20020;-86
2023/07/18 02:36:12;;;;;;;6.90;3.42;;;;;;;12.15;85.46;101889.25;5113710;28;20031;-85
2023/07/18 02:38:37;;;;;;;6.47;3.83;;;;;;;12.20;85.62;101897.63;5112281;28;20573;-85
2023/07/18 02:41:02;;;;;;;6.40;3.50;;;;;;;12.21;85.56;101893.06;5112288;28;20026;-86
2023/07/18 02:43:28;;;;;;;7.25;3.38;;;;;;;12.15;85.68;101891.94;5115456;28;20125;-85
2023/07/18 02:45:53;;;;;;;8.43;3.85;;;;;;;12.21;85.86;101891.19;5113038;28;20028;-85
2023/07/18 02:48:19;;;;;;;6.25;3.67;;;;;;;12.15;86.31;101880.28;5108425;28;20479;-85
2023/07/18 02:50:44;;;;;;;5.28;3.42;;;;;;;12.11;86.68;101879.84;5113107;28;20028;-85
2023/07/18 02:53:10;;;;;;;8.55;4.07;;;;;;;12.08;87.01;101880.19;5111631;28;20031;-86
2023/07/18 02:55:35;;;;;;;7.53;3.90;;;;;;;11.91;87.21;101885.69;5112941;28;20032;-85
2023/07/18 02:58:01;;;;;;;7.20;3.72;;;;;;;11.70;88.14;101886.34;5111779;28;20035;-86
2023/07/18 03:00:28;;;;;;;5.07;4.05;;;;;;;11.63;88.96;101883.53;5110969;28;20036;-86
2023/07/18 03:02:54;;;;;;;7.78;4.47;;;;;;;11.51;89.57;101885.78;5111736;28;20510;-86
2023/07/18 03:05:19;;;;;;;4.05;3.53;;;;;;;11.43;89.92;101885.81;5111365;28;20032;-86
2023/07/18 03:07:46;;;;;;;5.78;4.10;;;;;;;11.35;90.55;101875.94;5109090;28;20502;-85
2023/07/18 03:10:11;;;;;;;6.68;4.28;;;;;;;11.29;91.04;101882.03;5110615;28;20028;-85
2023/07/18 03:12:37;;;;;;;7.05;4.32;;;;;;;11.31;92.00;101871.06;5110262;28;20020;-85
2023/07/18 03:15:03;;;;;;;6.30;4.60;;;;;;;11.49;92.17;101876.19;5111229;27;20042;-86
2023/07/18 03:17:28;;;;;;;5.50;4.53;;;;;;;11.55;92.24;101867.41;5110013;28;20042;-85
2023/07/18 03:19:53;;;;;;;9.30;5.35;;;;;;;11.75;91.61;101869.63;5111933;28;20181;-86
2023/07/18 03:22:19;;;;;;;8.77;4.80;;;;;;;11.78;91.83;101863.88;5111026;28;20028;-85
2023/07/18 03:24:47;;;;;;;8.85;5.22;;;;;;;11.77;91.36;101862.19;5112890;28;20089;-86
2023/07/18 03:27:13;;;;;;;9.35;5.40;;;;;;;11.71;91.92;101865.59;5113312;28;20035;-85
2023/07/18 03:29:38;;;;;;;7.88;5.55;;;;;;;11.60;92.39;101872.25;5118144;28;20356;-85
2023/07/18 03:32:04;;;;;;;8.82;5.63;;;;;;;11.48;93.06;101869.09;5110122;28;20383;-86
2023/07/18 03:34:29;;;;;;;8.43;5.57;;;;;;;11.42;93.62;101859.88;5110955;28;20031;-85
2023/07/18 03:36:58;;;;;;;7.70;5.88;;;;;;;11.37;93.86;101852.34;5112155;28;20023;-86
2023/07/18 03:39:24;;;;;;;10.75;6.22;;;;;;;11.43;94.63;101861.56;5114097;28;20036;-86
2023/07/18 03:41:52;;;;;;;9.07;5.85;;;;;;;11.48;94.83;101866.41;5113274;28;20102;-86
2023/07/18 03:44:17;;;;;;;9.68;6.45;;;;;;;11.53;95.14;101861.34;5125787;28;20024;-86
2023/07/18 03:46:42;;;;;;;9.48;6.70;;;;;;;11.62;95.35;101876.47;5132549;28;20038;-87
2023/07/18 03:49:08;;;;;;;11.70;6.88;;;;;;;11.68;95.66;101873.03;5126822;28;20379;-86
2023/07/18 03:51:33;;;;;;;10.15;7.10;;;;;;;11.71;95.70;101879.09;5122790;28;20026;-85
2023/07/18 03:54:03;;;;;;;9.75;6.82;;;;;;;11.72;95.80;101878.06;5112202;28;20061;-85
2023/07/18 03:56:30;;;;;;;14.68;7.10;;;;;;;11.79;95.64;101882.56;5113300;28;20047;-85
2023/07/18 03:58:56;;;;;;;11.35;6.70;;;;;;;11.82;95.80;101882.22;5111169;28;20054;-86
2023/07/18 04:01:21;;;;;;;12.30;7.53;;;;;;;11.78;96.04;101886.28;5112237;28;20475;-87
2023/07/18 04:03:47;;;;;;;11.48;7.47;;;;;;;11.82;95.99;101890.31;5111773;28;20044;-86
2023/07/18 04:06:12;;;;;;;12.23;7.28;;;;;;;11.89;96.27;101882.31;5111933;28;20039;-91
2023/07/18 04:08:38;;;;;;;9.85;6.90;;;;;;;11.85;95.76;101883.69;5111276;28;20027;-90
2023/07/18 04:11:06;;;;;;;12.32;7.03;;;;;;;11.81;96.30;101877.00;5110481;28;20028;-78
2023/07/18 04:13:31;;;;;;;10.88;7.32;;;;;;;11.89;96.16;101876.94;5109128;28;20391;-87
2023/07/18 04:15:57;;;;;;;14.32;7.68;;;;;;;11.90;96.17;101867.00;5112422;28;20034;-86
2023/07/18 04:18:23;;;;;;;11.68;7.43;;;;;;;12.01;96.07;101879.22;5110292;28;20030;-84
2023/07/18 04:20:49;;;;;;;11.38;7.30;;;;;;;12.12;95.97;101879.63;5108753;28;20051;-85
2023/07/18 04:23:15;;;;;;;10.18;6.88;;;;;;;12.16;95.56;101868.47;5109637;28;20105;-84
2023/07/18 04:25:57;;;;;;;11.77;7.30;;;;;;;12.20;95.24;101867.94;5104293;28;20031;-83
2023/07/18 04:28:22;;;;;;;12.32;6.82;;;;;;;12.34;94.88;101860.06;5106924;28;20024;-83
2023/07/18 04:30:48;;;;;;;9.88;6.90;;;;;;;12.54;94.38;101863.88;5110320;28;20081;-84
2023/07/18 04:33:15;;;;;;;11.48;7.18;;;;;;;12.73;93.70;101867.06;5108965;28;20102;-84
2023/07/18 04:35:41;;;;;;;11.82;6.35;;;;;;;13.04;92.67;101861.44;5113133;28;20036;-84
2023/07/18 04:38:09;;;;;;;10.30;6.30;;;;;;;13.46;89.61;101867.16;5113758;28;20027;-84
2023/07/18 04:40:34;;;;;;;8.93;6.28;;;;;;;13.83;86.95;101866.28;5114597;28;20140;-83
2023/07/18 04:43:00;;;;;;;9.30;6.35;;;;;;;13.79;85.71;101872.09;5112835;28;20417;-83
2023/07/18 04:45:26;;;;;;;9.80;7.00;;;;;;;13.47;86.66;101871.56;5113265;28;20024;-83
2023/07/18 04:47:55;;;;;;;10.93;7.18;;;;;;;13.38;87.50;101869.97;5114440;28;20031;-84
2023/07/18 04:50:20;;;;;;;13.00;7.43;;;;;;;13.46;87.51;101867.16;5095869;28;20020;-83
2023/07/18 04:52:45;;;;;;;7.75;6.03;;;;;;;13.63;87.17;101869.63;5113275;28;20023;-83
2023/07/18 04:55:11;;;;;;;7.80;6.10;;;;;;;13.60;86.98;101868.16;5123722;28;20028;-86
2023/07/18 04:57:36;;;;;;;9.55;6.43;;;;;;;13.73;86.78;101872.88;5119564;28;20024;-85
2023/07/18 05:00:03;;;;;;;9.77;6.53;;;;;;;13.82;85.93;101867.31;5115089;28;20016;-85
2023/07/18 05:02:28;;;;;;;13.02;7.30;;;;;;;13.83;85.65;101863.59;5115137;28;20020;-86
2023/07/18 05:04:53;;;;;;;10.52;6.93;;;;;;;13.80;86.24;101864.81;5116569;28;20028;-85
2023/07/18 05:07:19;;;;;;;10.07;6.28;;;;;;;13.64;87.26;101863.19;5116582;28;20047;-85
2023/07/18 05:09:46;;;;;;;8.73;6.55;;;;;;;13.69;87.88;101866.16;5117062;28;20024;-85
2023/07/18 05:12:12;;;;;;;9.75;6.15;;;;;;;14.39;85.84;101869.06;5113231;28;20372;-85
2023/07/18 05:14:37;;;;;;;8.48;6.35;;;;;;;15.24;81.94;101865.34;5112052;28;20069;-85
2023/07/18 05:17:02;;;;;;;8.60;5.75;;;;;;;16.15;77.24;101865.13;5114698;28;20028;-85
2023/07/18 05:19:28;;;;;;;8.98;6.05;;;;;;;17.19;72.20;101869.91;5115718;28;20159;-85
2023/07/18 05:21:53;;;;;;;7.72;5.88;;;;;;;18.40;68.03;101871.81;5110345;28;20065;-86
2023/07/18 05:24:19;;;;;;;7.57;5.70;;;;;;;19.45;63.69;101871.88;5115090;28;20023;-86
2023/07/18 05:26:44;;;;;;;10.60;6.43;;;;;;;20.14;60.57;101866.84;5115433;28;20028;-86
2023/07/18 05:29:13;;;;;;;13.18;5.55;;;;;;;20.79;58.49;101875.16;5116855;28;20486;-86
2023/07/18 05:31:39;;;;;;;9.15;6.20;;;;;;;20.75;58.35;101873.94;5116028;28;20016;-86
2023/07/18 05:34:08;;;;;;;10.18;6.05;;;;;;;21.04;56.83;101866.66;5115677;28;20024;-87
2023/07/18 05:36:33;;;;;;;8.18;5.90;;;;;;;21.32;56.63;101867.75;5114128;28;20051;-86
2023/07/18 05:39:00;;;;;;;8.13;5.55;;;;;;;21.87;55.05;101868.19;5110867;28;20502;-86
2023/07/18 05:41:25;;;;;;;7.50;5.85;;;;;;;21.69;54.90;101877.47;5112841;27;20038;-87
2023/07/18 05:43:51;;;;;;;9.23;6.28;;;;;;;22.16;53.16;101870.00;5113285;28;20043;-87
2023/07/18 05:46:17;;;;;;;10.48;6.10;;;;;;;22.23;52.26;101868.78;5112871;28;20481;-87
2023/07/18 05:48:45;;;;;;;7.80;5.63;;;;;;;21.55;53.75;101874.16;5113037;28;20026;-87
2023/07/18 05:51:10;;;;;;;7.82;5.82;;;;;;;20.99;56.07;101873.94;5115465;28;20051;-87
2023/07/18 05:53:36;;;;;;;11.30;6.70;;;;;;;20.60;57.00;101874.44;5112951;28;20020;-87
2023/07/18 05:56:04;;;;;;;11.75;6.18;;;;;;;19.71;60.32;101873.41;5114497;28;20383;-87
2023/07/18 05:58:29;;;;;;;10.57;6.38;;;;;;;20.05;59.36;101870.16;5115023;28;20035;-86
2023/07/18 06:00:54;;;;;;;10.35;6.47;;;;;;;20.14;59.40;101868.75;5116088;28;20424;-86
2023/07/18 06:03:22;;;;;;;9.38;5.93;;;;;;;21.48;55.59;101873.50;5120724;28;20071;-86
2023/07/18 06:05:52;;;;;;;9.95;6.35;;;;;;;22.16;53.59;101870.84;5114075;27;20032;-86
2023/07/18 06:08:24;;;;;;;10.50;6.25;;;;;;;22.47;52.13;101870.50;5115179;28;20024;-86
2023/07/18 06:10:56;;;;;;;7.90;5.82;;;;;;;23.07;50.73;101878.97;5114717;28;20031;-87
2023/07/18 06:13:23;;;;;;;8.00;6.13;;;;;;;23.34;49.80;101873.53;5114034;28;20035;-86
2023/07/18 06:15:50;;;;;;;6.93;6.03;;;;;;;22.84;51.74;101876.22;5114623;28;20020;-83
2023/07/18 06:18:15;;;;;;;7.32;5.35;;;;;;;23.08;51.45;101873.22;5113687;28;20049;-85
2023/07/18 06:20:41;;;;;;;8.15;5.53;;;;;;;24.16;48.31;101862.44;5112739;28;20037;-88
2023/07/18 06:23:06;;;;;;;9.90;5.60;;;;;;;24.89;46.13;101874.69;5122855;28;20026;-86
2023/07/18 06:25:32;;;;;;;6.60;5.25;;;;;;;25.03;45.80;101877.78;5112426;28;20016;-85
2023/07/18 06:27:57;;;;;;;9.07;5.78;;;;;;;25.08;45.50;101876.97;5112213;28;20032;-87
2023/07/18 06:30:23;;;;;;;7.18;5.50;;;;;;;24.68;46.93;101874.59;5110735;28;20016;-86
2023/07/18 06:32:48;;;;;;;7.68;4.90;;;;;;;24.94;46.25;101880.25;5112978;28;20031;-85
2023/07/18 06:35:13;;;;;;;8.57;5.47;;;;;;;25.26;45.66;101878.41;5112155;28;20030;-85
2023/07/18 06:37:41;;;;;;;6.20;5.43;;;;;;;24.71;47.15;101877.94;5112631;28;20019;-85
2023/07/18 06:40:07;;;;;;;8.57;5.00;;;;;;;25.90;43.38;101886.53;5111539;28;20027;-85
2023/07/18 06:42:32;;;;;;;6.57;4.75;;;;;;;26.30;43.02;101885.69;5112249;28;20551;-85
2023/07/18 06:44:58;;;;;;;5.47;4.57;;;;;;;26.74;40.57;101892.47;5112735;28;20027;-84
2023/07/18 06:47:23;;;;;;;7.55;4.50;;;;;;;26.59;40.72;101892.53;5114893;28;20042;-89
2023/07/18 06:49:49;;;;;;;8.23;4.82;;;;;;;26.86;40.35;101888.56;5111779;28;20032;-87
2023/07/18 06:52:14;;;;;;;6.93;4.60;;;;;;;27.14;39.58;101886.25;5117396;22;20317;-86
2023/07/18 06:54:40;;;;;;;7.63;4.72;;;;;;;27.34;39.18;101880.63;5109802;28;20030;-87
2023/07/18 06:57:06;;;;;;;7.60;4.65;;;;;;;27.30;39.47;101885.06;5104016;28;20024;-86
2023/07/18 06:59:31;;;;;;;5.55;4.28;;;;;;;27.95;38.03;101878.50;5109673;28;20637;-87
2023/07/18 07:01:57;;;;;;;7.35;4.70;;;;;;;27.03;39.86;101878.00;5117501;28;20020;-87
2023/07/18 07:04:22;;;;;;;5.70;4.68;;;;;;;25.73;45.09;101866.38;5122873;28;20038;-86
2023/07/18 07:06:49;;;;;;;7.55;4.35;;;;;;;27.13;39.63;101868.81;5113947;28;20593;-87
2023/07/18 07:09:14;;;;;;;7.53;4.28;;;;;;;27.68;38.78;101868.78;5113091;28;20020;-87
2023/07/18 07:11:43;;;;;;;8.00;4.50;;;;;;;27.91;37.58;101868.31;5109527;28;20455;-86
2023/07/18 07:14:08;;;;;;;7.55;3.80;;;;;;;28.41;36.20;101865.34;5118514;28;20032;-86
2023/07/18 07:16:35;;;;;;;6.13;4.00;;;;;;;26.74;38.09;101866.78;5122219;28;20035;-86
2023/07/18 07:19:00;;;;;;;4.60;3.65;;;;;;;25.36;41.13;101866.59;5124397;28;20114;-88
2023/07/18 07:21:27;;;;;;;8.20;4.50;;;;;;;24.36;43.91;101867.25;5115433;28;20024;-86
2023/07/18 07:23:52;;;;;;;6.20;3.67;;;;;;;25.47;41.12;101865.53;5122412;28;20024;-87
2023/07/18 07:26:19;;;;;;;4.20;3.33;;;;;;;27.45;37.17;101867.50;5124957;22;20062;-85
2023/07/18 07:28:45;;;;;;;4.75;3.38;;;;;;;26.91;37.89;101869.22;5095879;28;20162;-85
2023/07/18 07:31:11;;;;;;;6.65;3.70;;;;;;;26.09;38.94;101867.47;5090079;28;20036;-84
2023/07/18 07:33:37;;;;;;;5.13;3.60;;;;;;;25.21;41.52;101853.59;5096011;28;20028;-84
2023/07/18 07:36:02;;;;;;;8.23;3.88;;;;;;;24.29;43.34;101849.31;5092685;28;20036;-82
2023/07/18 07:38:29;;;;;;;4.55;3.20;;;;;;;27.20;37.57;101855.53;5086365;28;20039;-82
2023/07/18 07:41:00;;;;;;;4.85;2.90;;;;;;;28.02;35.50;101857.97;5093040;28;20024;-83
2023/07/18 07:43:26;;;;;;;5.38;3.22;;;;;;;27.57;36.37;101845.06;5073391;28;20035;-82
2023/07/18 07:45:55;;;;;;;4.68;3.47;;;;;;;25.16;41.38;101848.06;5078459;28;20043;-82
2023/07/18 07:48:21;;;;;;;6.63;3.28;;;;;;;27.28;37.82;101851.34;5094453;28;20036;-82
2023/07/18 07:50:48;;;;;;;5.22;3.17;;;;;;;28.53;35.83;101854.69;5111795;28;20544;-82
2023/07/18 07:53:13;;;;;;;5.22;3.20;;;;;;;29.12;34.06;101848.97;5089594;28;20107;-82
2023/07/18 07:55:39;;;;;;;5.55;2.75;;;;;;;29.50;34.20;101850.91;5089894;28;20036;-82
2023/07/18 07:58:04;;;;;;;4.93;2.90;;;;;;;29.78;32.85;101837.97;5092050;28;20153;-82
2023/07/18 08:00:30;;;;;;;5.43;2.60;;;;;;;28.43;34.66;101849.25;5091820;28;20032;-82
2023/07/18 08:02:55;;;;;;;2.67;2.30;;;;;;;28.88;33.22;101849.00;5083441;28;20527;-82
2023/07/18 08:05:21;;;;;;;4.93;2.60;;;;;;;29.39;32.21;101841.94;5091380;28;20047;-82
2023/07/18 08:07:46;;;;;;;5.05;2.40;;;;;;;29.66;32.50;101840.38;5091851;28;20016;-82
2023/07/18 08:10:12;;;;;;;3.55;2.50;;;;;;;29.66;32.33;101840.38;5092161;28;20032;-82
2023/07/18 08:12:38;;;;;;;4.57;2.05;;;;;;;29.55;32.98;101847.22;5091458;28;20051;-82
2023/07/18 08:15:04;;;;;;;3.17;2.08;;;;;;;30.21;31.09;101844.41;5075885;28;20041;-82
2023/07/18 08:17:29;;;;;;;2.60;2.10;;;;;;;30.40;30.56;101844.34;5087715;28;20047;-82
2023/07/18 08:19:55;;;;;;;3.17;2.20;;;;;;;30.20;30.98;101842.78;5091288;28;20479;-82
2023/07/18 08:22:20;;;;;;;3.80;2.20;;;;;;;29.20;31.76;101836.38;5083497;28;20028;-81
2023/07/18 08:24:46;;;;;;;4.45;2.28;;;;;;;28.97;33.00;101836.13;5091808;28;20089;-81
2023/07/18 08:27:11;;;;;;;4.03;2.10;;;;;;;29.42;32.21;101835.78;5091191;28;20438;-81
2023/07/18 08:29:37;;;;;;;3.15;2.03;;;;;;;29.81;30.99;101822.63;5087165;28;20020;-81
2023/07/18 08:32:03;;;;;;;4.28;2.00;;;;;;;29.37;31.12;101826.72;5091678;28;20032;-81
2023/07/18 08:34:28;;;;;;;3.33;1.80;;;;;;;29.09;30.65;101829.31;5091185;28;20051;-80
2023/07/18 08:36:54;;;;;;;2.72;1.50;;;;;;;27.86;33.03;101819.38;5090438;28;20471;-80
2023/07/18 08:39:19;;;;;;;2.47;1.58;;;;;;;28.03;33.05;101827.22;5091441;28;20064;-81
2023/07/18 08:41:45;;;;;;;4.07;1.50;;;;;;;29.14;30.65;101816.19;5081788;28;20365;-83
2023/07/18 08:44:12;;;;;;;2.03;1.27;;;;;;;28.80;30.13;101817.25;5087623;28;20028;-80
2023/07/18 08:46:38;;;;;;;2.35;1.25;;;;;;;28.25;30.46;101818.44;5089902;28;20024;-80
2023/07/18 08:49:04;;;;;;;2.85;1.20;;;;;;;28.07;31.00;101824.69;5090215;28;20028;-80
2023/07/18 08:51:30;;;;;;;1.90;1.40;;;;;;;27.66;31.80;101823.97;5076765;28;20023;-82
2023/07/18 08:53:57;;;;;;;1.80;1.20;;;;;;;28.49;31.54;101820.38;5082702;28;20039;-79
2023/07/18 08:56:23;;;;;;;2.58;1.30;;;;;;;28.44;31.73;101818.50;5087886;28;20032;-80
2023/07/18 08:58:48;;;;;;;2.53;1.33;;;;;;;28.10;33.13;101813.06;5069887;28;20028;-79
2023/07/18 09:01:15;;;;;;;1.60;1.20;;;;;;;29.36;29.46;101813.97;5087643;28;20367;-80
2023/07/18 09:03:40;;;;;;;3.30;1.48;;;;;;;30.07;28.58;101794.44;5085631;28;20031;-80
2023/07/18 09:06:18;;;;;;;4.28;1.40;;;;;;;30.07;28.84;101803.59;5084040;28;20036;-80
2023/07/18 09:08:44;;;;;;;1.90;1.15;;;;;;;30.17;27.92;101802.56;5085759;28;20024;-80
2023/07/18 09:11:12;;;;;;;3.42;1.25;;;;;;;29.65;28.26;101797.13;5089034;28;20024;-80
2023/07/18 09:13:38;;;;;;;1.33;1.00;;;;;;;29.25;28.76;101799.41;5087196;28;20016;-80
2023/07/18 09:16:17;;;;;;;1.95;0.80;;;;;;;29.38;27.32;101790.34;5094248;28;20035;-79
2023/07/18 09:18:52;;;;;;;1.38;0.90;;;;;;;29.19;28.31;101776.50;5099061;28;20545;-80
2023/07/18 09:21:18;;;;;;;2.35;1.00;;;;;;;27.98;29.77;101781.06;5093151;28;20032;-79
2023/07/18 09:23:44;;;;;;;1.77;1.00;;;;;;;27.26;31.36;101773.38;5094928;28;20092;-80
2023/07/18 09:26:13;;;;;;;1.23;0.88;;;;;;;28.83;29.24;101775.06;5092823;28;20495;-78
2023/07/18 09:28:39;;;;;;;2.20;1.00;;;;;;;28.34;29.40;101773.50;5074338;28;20028;-80
2023/07/18 09:31:20;;;;;;;0.98;0.63;;;;;;;28.67;29.02;101771.69;5091489;28;20025;-79
2023/07/18 09:33:46;;;;;;;2.70;0.90;;;;;;;29.50;27.69;101764.91;5088362;28;20119;-79
2023/07/18 09:36:19;;;;;;;1.35;0.77;;;;;;;29.92;27.93;101770.53;5094175;28;20032;-79
2023/07/18 09:38:49;;;;;;;1.27;0.70;;;;;;;29.46;27.53;101764.72;5095515;28;20039;-79
2023/07/18 09:41:21;;;;;;;2.67;0.80;;;;;;;29.87;26.04;101762.28;5093093;28;20035;-79
2023/07/18 09:43:47;;;;;;;1.23;0.90;;;;;;;27.82;28.77;101772.09;5091354;28;20156;-79
2023/07/18 09:46:14;;;;;;;2.00;0.88;;;;;;;29.13;27.57;101764.63;5087187;28;20042;-79
2023/07/18 09:48:48;;;;;;;2.45;0.77;;;;;;;29.51;28.60;101774.88;5085857;28;20031;-79
2023/07/18 09:51:15;;;;;;;1.75;0.90;;;;;;;28.71;28.30;101763.59;5093618;28;20040;-79
2023/07/18 09:53:44;;;;;;;1.73;0.85;;;;;;;29.26;26.70;101768.59;5094432;28;20047;-79
2023/07/18 09:56:10;;;;;;;1.40;1.00;;;;;;;27.71;29.81;101755.91;5091185;28;20140;-79
2023/07/18 09:58:37;;;;;;;4.45;1.08;;;;;;;28.92;27.68;101771.66;5096937;22;20051;-79
2023/07/18 10:01:04;;;;;;;2.05;0.90;;;;;;;26.59;31.45;101759.97;5082631;28;20029;-79
2023/07/18 10:03:31;;;;;;;1.65;0.80;;;;;;;26.61;31.57;101758.56;5090634;28;20027;-79
2023/07/18 10:05:56;;;;;;;0.90;0.90;;;;;;;26.72;31.07;101756.56;5068952;28;20033;-79
2023/07/18 10:08:22;;;;;;;0.70;0.70;;;;;;;28.52;29.10;101758.00;5050376;28;20031;-78
2023/07/18 10:11:04;;;;;;;1.17;0.70;;;;;;;29.71;26.69;101757.03;5071332;28;20506;-78
2023/07/18 10:13:31;;;;;;;5.00;1.00;;;;;;;29.99;26.55;101754.34;5085192;28;20025;-78
2023/07/18 10:16:11;;;;;;;0.93;0.68;;;;;;;29.69;27.16;101748.19;5073867;28;20043;-77
2023/07/18 10:18:45;;;;;;;0.70;0.65;;;;;;;30.78;26.12;101743.22;5083447;28;20032;-79
2023/07/18 10:21:12;;;;;;;1.30;0.85;;;;;;;31.42;24.52;101753.38;5091641;28;20032;-79
2023/07/18 10:23:41;;;;;;;3.65;0.90;;;;;;;31.21;24.43;101740.00;5084128;28;20376;-79
2023/07/18 10:26:10;;;;;;;1.88;0.70;;;;;;;29.59;26.94;101751.97;5092510;28;20039;-79
2023/07/18 10:28:45;;;;;;;1.10;0.73;;;;;;;28.47;26.11;101739.53;5090771;28;20035;-79
2023/07/18 10:31:30;;;;;;;21.65;3.08;;;;;;;27.20;28.97;101744.13;5088206;28;20024;-79
2023/07/18 10:34:15;;;;;;;1.58;0.80;;;;;;;27.25;28.85;101738.56;5084023;28;20475;-79
2023/07/18 10:37:01;;;;;;;0.85;0.80;;;;;;;25.75;31.08;101735.66;5089994;28;20092;-78
2023/07/18 10:39:44;;;;;;;1.45;1.00;;;;;;;26.55;30.92;101739.53;5081535;28;20039;-79
2023/07/18 10:42:24;;;;;;;1.45;0.90;;;;;;;26.99;31.16;101733.25;5092201;28;20024;-78
2023/07/18 10:44:57;;;;;;;0.55;0.55;;;;;;;28.11;28.56;101738.06;5109328;28;20042;-78
2023/07/18 10:47:22;;;;;;;3.90;0.93;;;;;;;29.85;27.88;101731.25;5116049;28;20028;-79
2023/07/18 10:49:48;;;;;;;2.22;0.93;;;;;;;29.90;25.52;101722.81;5098704;28;20028;-80
2023/07/18 10:52:17;;;;;;;1.83;0.60;;;;;;;30.90;24.46;101721.25;5095088;28;20028;-80
2023/07/18 10:54:49;;;;;;;1.08;0.70;;;;;;;30.74;24.53;101728.31;5085421;28;20028;-79
2023/07/18 10:57:15;;;;;;;1.17;0.60;;;;;;;31.38;23.14;101719.00;5074188;28;20044;-80
2023/07/18 10:59:44;;;;;;;0.75;0.70;;;;;;;31.16;23.72;101715.09;5082434;28;20047;-80
2023/07/18 11:02:09;;;;;;;1.35;0.70;;;;;;;30.69;24.15;101713.41;5084250;28;20024;-80
2023/07/18 11:04:35;;;;;;;2.33;0.80;;;;;;;30.57;25.88;101702.00;5087239;28;20051;-80
2023/07/18 11:07:00;;;;;;;1.27;0.85;;;;;;;30.53;25.55;101695.44;5086695;28;20039;-80
2023/07/18 11:09:26;;;;;;;1.73;0.80;;;;;;;31.28;23.34;101695.03;5093144;28;20032;-80
2023/07/18 11:11:51;;;;;;;0.90;0.60;;;;;;;30.29;24.73;101693.72;5092807;28;20076;-80
2023/07/18 11:14:20;;;;;;;1.05;0.82;;;;;;;30.75;23.85;101677.16;5092162;28;20028;-80
2023/07/18 11:16:46;;;;;;;2.00;0.90;;;;;;;30.01;24.81;101679.88;5086366;28;20025;-79
2023/07/18 11:19:15;;;;;;;2.30;0.80;;;;;;;30.43;24.59;101674.25;5091916;28;20031;-79
2023/07/18 11:21:41;;;;;;;1.33;0.90;;;;;;;29.62;25.33;101668.13;5092663;28;20076;-80
2023/07/18 11:24:07;;;;;;;2.30;1.10;;;;;;;30.72;24.12;101681.38;5093032;28;20020;-80